Terminal Aerodrome Forecast
Issued by NWS Cleveland, OH

Home | Current Version | Previous Version | Graphics & Text | Print | Product List | Glossary Off
Versions: 1 2 3 4 5 6 7 8 9 10 11 12 13 14 15 16 17 18 19 20 21 22 23 24 25

000
FTUS41 KCLE 251500 AAA
TAFCLE
TAF AMD
KCLE 251500Z 2515/2618 23012G20KT P6SM FEW040
     FM251700 23012G20KT P6SM BKN022 OVC035
     FM252000 26014G22KT P6SM SCT025
     FM252300 28012KT P6SM SKC
     FM261500 28012G20KT P6SM SCT025=

USA.gov is the U.S. government's official web portal to all federal, state and local government web resources and services.